Airfield :
LOGIN :

Register | Disclaimer

   EN    FR    IT 

 










Legend :    VFR   Marginal VFR   IFR   Intensive IFR   Very Intensive IFR
Visi :
Ceiling :
>= 8 km
>= 3000ft
5 to 8 km
1000 to 3000 ft
1500m to 5 km
500 to 1000 ft
800 to 1500m
200 to 500 ft
< 800m
< 200 ft
Symbols :   Thunderstorms  Fog  Heavy snow  Heavy precipitations  Wind > 20 kt
SIGMETs :     Misc.  Thunderstorms  Icing  Turbulence  Mountain Waves  Volcanic Ashes






- Airport Elevation : 529 ft
- IATA code : CHR


LFLX - Chateauroux

CURRENT METAR :
  • 131030Z AUTO 27020G34KT 9999 BKN031 09/04 Q0993 TEMPO 4000 SHRA BKN014CB

EXPIRED METARs :
  • 131000Z AUTO 27023G37KT 9999 BKN030 BKN040 09/03 Q0993 TEMPO 4000 SHRA BKN014CB
  • 130930Z AUTO 27020G32KT 9999 FEW029 BKN050 09/04 Q0992 TEMPO 4000 SHRA BKN014CB
  • 130900Z AUTO 26021KT 9999 FEW039 08/04 Q0991 TEMPO 26020G40KT 4000 SHRA BKN014CB
  • 130830Z AUTO 26020KT CAVOK 08/03 Q0990 TEMPO 26020G40KT 4000 SHRA BKN014CB
  • 130800Z AUTO 27018KT CAVOK 08/03 Q0990 TEMPO 26020G40KT 4000 SHRA BKN014CB

TAF TAF LFLX
Valid from the 13 at 06:00 until the 14 at 12:00 UTC


130500Z 1306/1412 28020KT 9999 SCT030
TEMPO 1306/1318 28020G35KT -SHRA BKN025TCU
PROB30
TEMPO 1306/1316 26020G40KT 4000 SHRA BKN014CB
BECMG 1317/1319 BKN014
TEMPO 1319/1402 4000 RA BKN008
PROB40
TEMPO 1320/1406 26020G35KT BKN014TCU
PROB30
TEMPO 1321/1405 26025G45KT
BECMG 1403/1405 26012KT SCT030
PROB30
TEMPO 1406/1408 25015G25KT 4000 -SHRA SCT025TCU



MET'MAP, your aeronautical weather chart ! - Copyright ORBIFLY December 2007 - Disclaimer

ORBIFLY MET'MAP TEAM :

Programming & Development : Alexandra Zaïnal
Concept & original design : Baudouin d'Aumeries
Assistance for programming : Marc-Olivier Méhu
Technical & hardware support : Manuel Goepfert

Contact : metmap@orbifly.com




SOURCES & CREDITS :

   NOAA